createdAt,value
2023-07-06T00:01:07.625Z,16.09
2023-07-06T00:03:37.833Z,16.15
2023-07-06T00:06:10.508Z,16.07
2023-07-06T00:08:38.762Z,16.11
2023-07-06T00:11:08.221Z,16.14
2023-07-06T00:13:34.807Z,15.97
2023-07-06T00:16:01.699Z,15.95
2023-07-06T00:18:28.319Z,15.89
2023-07-06T00:20:58.827Z,15.87
2023-07-06T00:23:25.484Z,15.86
2023-07-06T00:25:52.064Z,15.88
2023-07-06T00:28:26.966Z,15.93
2023-07-06T00:30:56.309Z,15.96
2023-07-06T00:33:24.657Z,15.93
2023-07-06T00:35:51.411Z,15.95
2023-07-06T00:38:22.963Z,15.95
2023-07-06T00:40:52.886Z,15.97
2023-07-06T00:43:25.356Z,15.97
2023-07-06T00:45:57.758Z,15.97
2023-07-06T00:48:36.060Z,15.97
2023-07-06T00:51:09.253Z,15.92
2023-07-06T00:53:39.802Z,15.91
2023-07-06T00:56:09.400Z,15.93
2023-07-06T00:58:41.839Z,15.97
2023-07-06T01:01:13.914Z,16.08
2023-07-06T01:03:47.679Z,16.07
2023-07-06T01:06:27.192Z,16.07
2023-07-06T01:08:57.503Z,16.06
2023-07-06T01:11:27.927Z,16.06
2023-07-06T01:14:00.634Z,16.01
2023-07-06T01:16:53.608Z,15.96
2023-07-06T01:19:22.830Z,16.02
2023-07-06T01:22:14.208Z,16.05
2023-07-06T01:25:18.990Z,16.06
2023-07-06T01:28:04.264Z,15.96
2023-07-06T01:30:59.359Z,15.95
2023-07-06T01:33:40.372Z,15.97
2023-07-06T01:36:22.816Z,16.02
2023-07-06T01:38:49.416Z,16.00
2023-07-06T01:41:29.399Z,16.02
2023-07-06T01:44:02.205Z,16.00
2023-07-06T01:46:29.464Z,16.03
2023-07-06T01:48:56.611Z,16.06
2023-07-06T01:51:36.542Z,16.02
2023-07-06T01:54:17.148Z,16.03
2023-07-06T01:57:03.582Z,16.02
2023-07-06T01:59:33.375Z,15.99
2023-07-06T02:02:08.322Z,15.93
2023-07-06T02:04:44.356Z,15.93
2023-07-06T02:07:13.030Z,15.89
2023-07-06T02:09:47.926Z,15.92
2023-07-06T02:12:15.007Z,15.94
2023-07-06T02:14:42.782Z,15.91
2023-07-06T02:17:13.119Z,15.90
2023-07-06T02:19:48.485Z,15.85
2023-07-06T02:22:14.980Z,15.86
2023-07-06T02:24:41.647Z,15.87
2023-07-06T02:27:11.122Z,15.83
2023-07-06T02:29:39.937Z,15.74
2023-07-06T02:32:10.785Z,15.71
2023-07-06T02:34:37.406Z,15.66
2023-07-06T02:37:04.467Z,15.62
2023-07-06T02:39:31.228Z,15.56
2023-07-06T02:41:58.061Z,15.50
2023-07-06T02:44:25.628Z,15.55
2023-07-06T02:46:53.045Z,15.49
2023-07-06T02:49:19.702Z,15.46
2023-07-06T02:51:47.613Z,15.37
2023-07-06T02:54:16.552Z,15.31
2023-07-06T02:56:43.810Z,15.28
2023-07-06T02:59:11.884Z,15.26
2023-07-06T03:01:38.643Z,15.30
2023-07-06T03:04:10.439Z,15.19
2023-07-06T03:06:40.387Z,15.20
2023-07-06T03:09:10.361Z,15.33
2023-07-06T03:11:37.809Z,15.27
2023-07-06T03:14:05.132Z,15.31
2023-07-06T03:16:41.469Z,15.23
2023-07-06T03:19:14.177Z,15.23
2023-07-06T03:21:40.816Z,15.20
2023-07-06T03:24:08.910Z,15.22
2023-07-06T03:26:37.993Z,15.24
2023-07-06T03:29:06.121Z,15.27
2023-07-06T03:31:33.854Z,15.23
2023-07-06T03:34:07.285Z,15.18
2023-07-06T03:36:35.074Z,15.15
2023-07-06T03:39:02.585Z,15.18
2023-07-06T03:41:29.319Z,15.16
2023-07-06T03:43:59.867Z,15.18
2023-07-06T03:46:35.882Z,15.18
2023-07-06T03:49:08.441Z,15.20
2023-07-06T03:51:35.029Z,15.21
2023-07-06T03:54:07.723Z,15.23
2023-07-06T03:56:35.186Z,15.21
2023-07-06T03:59:02.252Z,15.14
2023-07-06T04:01:32.521Z,15.20
2023-07-06T04:03:59.837Z,15.23
2023-07-06T04:06:28.412Z,15.24
2023-07-06T04:08:57.978Z,15.26
2023-07-06T04:11:25.551Z,15.27
2023-07-06T04:14:00.166Z,15.26
2023-07-06T04:16:27.920Z,15.27
2023-07-06T04:18:54.478Z,15.29
2023-07-06T04:21:21.066Z,15.30
2023-07-06T04:23:50.858Z,15.30
2023-07-06T04:26:20.398Z,15.36
2023-07-06T04:28:48.831Z,15.40
2023-07-06T04:31:18.499Z,15.48
2023-07-06T04:33:47.498Z,15.55
2023-07-06T04:36:21.069Z,15.60
2023-07-06T04:38:47.733Z,15.69
2023-07-06T04:41:14.670Z,15.77
2023-07-06T04:43:41.210Z,15.83
2023-07-06T04:46:09.758Z,15.81
2023-07-06T04:48:37.355Z,15.88
2023-07-06T04:51:04.875Z,15.96
2023-07-06T04:53:33.890Z,15.99
2023-07-06T04:56:01.415Z,16.07
2023-07-06T04:58:30.096Z,16.14
2023-07-06T05:00:58.051Z,16.18
2023-07-06T05:03:24.845Z,16.21
2023-07-06T05:05:51.402Z,16.20
2023-07-06T05:08:21.118Z,16.19
2023-07-06T05:10:52.776Z,16.20
2023-07-06T05:13:20.848Z,16.23
2023-07-06T05:15:49.711Z,16.28
2023-07-06T05:18:19.641Z,16.21
2023-07-06T05:20:49.639Z,16.22
2023-07-06T05:23:16.612Z,16.23
2023-07-06T05:25:43.094Z,16.22
2023-07-06T05:28:12.117Z,16.24
2023-07-06T05:30:44.107Z,16.09
2023-07-06T05:33:10.726Z,16.05
2023-07-06T05:35:37.239Z,16.05
2023-07-06T05:38:03.819Z,16.08
2023-07-06T05:40:30.393Z,16.21
2023-07-06T05:42:57.048Z,16.15
2023-07-06T05:45:23.690Z,16.27
2023-07-06T05:47:50.288Z,16.31
2023-07-06T05:50:17.073Z,16.34
2023-07-06T05:52:43.640Z,16.31
2023-07-06T05:55:10.678Z,16.32
2023-07-06T05:57:37.326Z,16.31
2023-07-06T06:00:10.862Z,16.32
2023-07-06T06:02:41.135Z,16.35
2023-07-06T06:05:08.551Z,16.35
2023-07-06T06:07:35.037Z,16.41
2023-07-06T06:10:05.432Z,16.43
2023-07-06T06:12:33.067Z,16.43
2023-07-06T06:15:00.261Z,16.44
2023-07-06T06:17:29.716Z,16.43
2023-07-06T06:19:56.806Z,16.44
2023-07-06T06:22:23.921Z,16.49
2023-07-06T06:24:50.584Z,16.54
2023-07-06T06:27:18.790Z,16.49
2023-07-06T06:29:45.596Z,16.55
2023-07-06T06:32:14.040Z,16.64
2023-07-06T06:34:46.224Z,16.63
2023-07-06T06:37:12.730Z,16.67
2023-07-06T06:39:40.878Z,16.75
2023-07-06T06:42:09.020Z,16.73
2023-07-06T06:44:36.646Z,16.71
2023-07-06T06:47:05.409Z,16.74
2023-07-06T06:49:36.219Z,16.81
2023-07-06T06:52:05.871Z,16.91
2023-07-06T06:54:34.061Z,16.94
2023-07-06T06:57:02.042Z,16.93
2023-07-06T06:59:28.662Z,16.87
2023-07-06T07:01:56.217Z,16.89
2023-07-06T07:04:22.990Z,16.93
2023-07-06T07:06:49.565Z,16.92
2023-07-06T07:09:16.225Z,17.07
2023-07-06T07:11:42.800Z,17.06
2023-07-06T07:14:14.639Z,17.07
2023-07-06T07:16:44.661Z,17.14
2023-07-06T07:19:11.386Z,17.17
2023-07-06T07:21:37.905Z,17.12
2023-07-06T07:24:04.792Z,17.15
2023-07-06T07:26:31.974Z,17.19
2023-07-06T07:28:59.005Z,17.22
2023-07-06T07:31:26.520Z,17.43
2023-07-06T07:33:53.098Z,17.52
2023-07-06T07:36:20.963Z,17.49
2023-07-06T07:38:49.463Z,17.34
2023-07-06T07:41:20.360Z,17.34
2023-07-06T07:43:49.407Z,17.50
2023-07-06T07:46:18.088Z,17.52
2023-07-06T07:48:48.266Z,17.51
2023-07-06T07:51:20.636Z,17.57
2023-07-06T07:53:47.178Z,17.73
2023-07-06T07:56:16.796Z,17.97
2023-07-06T07:58:48.446Z,18.25
2023-07-06T08:01:23.664Z,18.29
2023-07-06T08:03:51.248Z,18.15
2023-07-06T08:06:20.273Z,18.29
2023-07-06T08:08:49.397Z,18.65
2023-07-06T08:11:22.030Z,18.71
2023-07-06T08:13:54.661Z,18.63
2023-07-06T08:16:22.956Z,18.84
2023-07-06T08:18:54.498Z,19.02
2023-07-06T08:21:45.618Z,19.20
2023-07-06T08:24:12.915Z,19.12
2023-07-06T08:26:39.502Z,19.48
2023-07-06T08:29:06.048Z,19.71
2023-07-06T08:31:34.013Z,19.21
2023-07-06T08:34:01.822Z,19.27
2023-07-06T08:36:28.659Z,19.43
2023-07-06T08:38:58.093Z,19.95
2023-07-06T08:41:31.576Z,19.69
2023-07-06T08:44:00.884Z,19.93
2023-07-06T08:46:36.242Z,20.01
2023-07-06T08:49:06.592Z,20.05
2023-07-06T08:51:36.617Z,20.18
2023-07-06T08:54:11.885Z,19.80
2023-07-06T08:56:38.895Z,19.68
2023-07-06T08:59:23.346Z,19.89
2023-07-06T09:01:50.606Z,19.54
2023-07-06T09:04:24.740Z,19.21
2023-07-06T09:06:56.099Z,19.69
2023-07-06T09:09:22.713Z,19.98
2023-07-06T09:11:51.538Z,20.26
2023-07-06T09:14:21.155Z,20.89
2023-07-06T09:16:56.578Z,21.08
2023-07-06T09:19:26.090Z,20.66
2023-07-06T09:21:59.328Z,19.96
2023-07-06T09:24:29.095Z,20.15
2023-07-06T09:27:00.088Z,20.29
2023-07-06T09:29:31.454Z,20.91
2023-07-06T09:32:18.425Z,21.51
2023-07-06T09:34:47.799Z,21.72
2023-07-06T09:37:15.812Z,21.56
2023-07-06T09:39:56.655Z,21.71
2023-07-06T09:42:24.075Z,21.50
2023-07-06T13:58:38.204Z,21.59
2023-07-06T14:01:04.748Z,21.73
2023-07-06T14:03:33.075Z,21.70
2023-07-06T14:05:59.926Z,21.60
2023-07-06T14:08:26.741Z,21.71
2023-07-06T14:10:56.326Z,21.54
2023-07-06T14:13:25.120Z,21.32
2023-07-06T14:15:55.385Z,21.31
2023-07-06T14:18:24.200Z,21.65
2023-07-06T14:20:53.081Z,21.69
2023-07-06T14:23:20.532Z,21.73
2023-07-06T14:25:48.296Z,21.79
2023-07-06T14:28:20.163Z,21.89
2023-07-06T14:30:50.271Z,22.24
2023-07-06T14:33:21.064Z,22.44
2023-07-06T14:35:47.898Z,22.65
2023-07-06T14:38:14.918Z,22.73
2023-07-06T14:40:41.403Z,22.85
2023-07-06T14:43:08.288Z,22.39
2023-07-06T14:45:36.424Z,22.18
2023-07-06T14:48:03.716Z,22.67
2023-07-06T14:50:30.287Z,22.68
2023-07-06T14:52:57.398Z,22.50
2023-07-06T14:55:25.311Z,22.08
2023-07-06T14:57:52.717Z,21.81
2023-07-06T15:00:20.064Z,21.83
2023-07-06T15:02:50.872Z,21.94
2023-07-06T15:05:17.765Z,22.14
2023-07-06T15:07:44.361Z,22.10
2023-07-06T15:10:11.372Z,22.33
2023-07-06T15:12:41.619Z,22.30
2023-07-06T15:15:10.484Z,21.98
2023-07-06T15:17:37.146Z,21.95
2023-07-06T15:20:05.101Z,22.06
2023-07-06T15:22:31.859Z,21.75
2023-07-06T15:25:00.817Z,21.40
2023-07-06T15:27:27.412Z,21.44
2023-07-06T15:29:53.976Z,21.47
2023-07-06T15:32:21.770Z,21.91
2023-07-06T15:34:59.938Z,21.95
2023-07-06T15:37:28.747Z,21.57
2023-07-06T15:39:58.114Z,21.38
2023-07-06T15:42:25.192Z,21.16
2023-07-06T15:44:51.844Z,21.13
2023-07-06T15:47:18.447Z,21.26
2023-07-06T15:49:45.056Z,21.27
2023-07-06T15:52:11.802Z,21.20
2023-07-06T15:54:38.362Z,21.17
2023-07-06T15:57:05.163Z,21.18
2023-07-06T15:59:31.710Z,21.18
2023-07-06T16:01:59.193Z,21.38
2023-07-06T16:04:25.986Z,21.49
2023-07-06T16:06:52.589Z,21.59
2023-07-06T16:09:19.145Z,21.42
2023-07-06T16:11:45.830Z,21.24
2023-07-06T16:14:17.958Z,21.11
2023-07-06T16:16:46.596Z,21.28
2023-07-06T16:19:14.951Z,21.56
2023-07-06T16:21:41.673Z,21.69
2023-07-06T16:24:08.803Z,21.77
2023-07-06T16:26:35.415Z,21.68
2023-07-06T16:29:02.367Z,21.70
2023-07-06T16:31:32.710Z,21.53
2023-07-06T16:33:59.816Z,21.51
2023-07-06T16:36:26.594Z,21.22
2023-07-06T16:38:53.249Z,21.11
2023-07-06T16:41:20.403Z,21.33
2023-07-06T16:43:47.078Z,21.49
2023-07-06T16:46:15.227Z,21.52
2023-07-06T16:48:42.153Z,21.59
2023-07-06T16:51:09.303Z,21.51
2023-07-06T16:53:36.032Z,21.48
2023-07-06T16:56:02.884Z,21.54
2023-07-06T16:58:30.326Z,21.56
2023-07-06T17:00:59.094Z,21.48
2023-07-06T17:03:28.456Z,21.53
2023-07-06T17:05:56.534Z,21.60
2023-07-06T17:08:23.294Z,21.64
2023-07-06T17:10:50.504Z,21.55
2023-07-06T17:13:17.528Z,21.52
2023-07-06T17:15:48.310Z,21.38
2023-07-06T17:18:14.841Z,21.30
2023-07-06T17:20:41.444Z,21.23
2023-07-06T17:23:07.927Z,21.11
2023-07-06T17:25:34.471Z,21.11
2023-07-06T17:28:01.010Z,21.05
2023-07-06T17:30:27.927Z,20.98
2023-07-06T17:32:54.594Z,20.99
2023-07-06T17:35:21.318Z,20.98
2023-07-06T17:37:47.847Z,21.09
2023-07-06T17:40:14.379Z,21.17
2023-07-06T17:42:40.870Z,21.24
2023-07-06T17:45:07.855Z,21.26
2023-07-06T17:47:34.487Z,21.27
2023-07-06T17:50:01.031Z,21.23
2023-07-06T17:52:27.638Z,21.15
2023-07-06T17:54:54.250Z,21.06
2023-07-06T17:57:21.305Z,21.05
2023-07-06T17:59:47.829Z,20.95
2023-07-06T18:02:16.278Z,20.74
2023-07-06T18:04:45.109Z,20.56
2023-07-06T18:07:11.673Z,20.50
2023-07-06T18:09:38.246Z,20.46
2023-07-06T18:12:05.093Z,20.36
2023-07-06T18:14:32.735Z,20.19
2023-07-06T18:17:00.973Z,20.08
2023-07-06T18:19:29.982Z,20.13
2023-07-06T18:21:57.921Z,20.11
2023-07-06T18:24:25.063Z,20.04
2023-07-06T18:26:54.924Z,19.88
2023-07-06T18:29:21.946Z,19.74
2023-07-06T18:31:49.082Z,19.72
2023-07-06T18:34:16.040Z,19.80
2023-07-06T18:36:42.599Z,19.71
2023-07-06T18:39:09.127Z,19.64
2023-07-06T18:41:35.676Z,19.45
2023-07-06T18:44:05.059Z,19.47
2023-07-06T18:46:31.684Z,19.39
2023-07-06T18:48:58.179Z,19.30
2023-07-06T18:51:24.905Z,19.22
2023-07-06T18:53:51.397Z,19.23
2023-07-06T18:56:21.034Z,19.14
2023-07-06T18:58:47.789Z,19.11
2023-07-06T19:01:14.436Z,19.01
2023-07-06T19:03:42.002Z,18.93
2023-07-06T19:06:16.894Z,18.91
2023-07-06T19:08:46.057Z,18.84
2023-07-06T19:11:14.822Z,18.77
2023-07-06T19:13:42.126Z,18.71
2023-07-06T19:16:08.947Z,18.68
2023-07-06T19:18:35.549Z,18.64
2023-07-06T19:21:02.132Z,18.60
2023-07-06T19:23:30.104Z,18.54
2023-07-06T19:25:57.231Z,18.53
2023-07-06T19:28:24.143Z,18.55
2023-07-06T19:30:50.659Z,18.56
2023-07-06T19:33:17.212Z,18.55
2023-07-06T19:35:44.279Z,18.49
2023-07-06T19:38:11.627Z,18.51
2023-07-06T19:40:38.153Z,18.54
2023-07-06T19:43:04.757Z,18.63
2023-07-06T19:45:35.453Z,18.71
2023-07-06T19:48:02.140Z,18.70
2023-07-06T19:50:28.725Z,18.61
2023-07-06T19:52:55.243Z,18.58
2023-07-06T19:55:21.716Z,18.50
2023-07-06T19:57:48.384Z,18.50
2023-07-06T20:00:15.726Z,18.52
2023-07-06T20:02:43.753Z,18.47
2023-07-06T20:05:10.417Z,18.44
2023-07-06T20:07:37.687Z,18.42
2023-07-06T20:10:06.397Z,18.39
2023-07-06T20:12:33.446Z,18.34
2023-07-06T20:15:00.092Z,18.23
2023-07-06T20:17:26.696Z,18.17
2023-07-06T20:19:54.605Z,18.09
2023-07-06T20:22:21.167Z,18.01
2023-07-06T20:24:50.112Z,18.00
2023-07-06T20:27:16.982Z,17.95
2023-07-06T20:29:43.496Z,17.92
2023-07-06T20:32:12.389Z,17.95
2023-07-06T20:34:42.526Z,17.95
2023-07-06T20:37:09.528Z,17.85
2023-07-06T20:39:38.937Z,17.83
2023-07-06T20:42:06.213Z,17.79
2023-07-06T20:44:40.214Z,17.77
2023-07-06T20:47:07.036Z,17.75
2023-07-06T20:49:34.271Z,17.73
2023-07-06T20:52:02.457Z,17.67
2023-07-06T20:54:28.990Z,17.55
2023-07-06T20:56:55.520Z,17.52
2023-07-06T20:59:22.108Z,17.57
2023-07-06T21:01:48.777Z,17.56
2023-07-06T21:04:16.992Z,17.51
2023-07-06T21:06:44.567Z,17.44
2023-07-06T21:09:11.441Z,17.39
2023-07-06T21:11:39.226Z,17.38
2023-07-06T21:14:10.241Z,17.24
2023-07-06T21:16:43.302Z,17.21
2023-07-06T21:19:10.561Z,17.21
2023-07-06T21:21:37.914Z,17.22
2023-07-06T21:24:05.874Z,17.20
2023-07-06T21:26:34.126Z,17.20
2023-07-06T21:29:00.670Z,17.13
2023-07-06T21:31:27.814Z,17.10
2023-07-06T21:33:54.756Z,17.10
2023-07-06T21:36:21.608Z,17.12
2023-07-06T21:38:48.532Z,17.02
2023-07-06T21:41:16.668Z,17.04
2023-07-06T21:43:44.286Z,17.08
2023-07-06T21:46:10.892Z,17.00
2023-07-06T21:48:39.019Z,17.00
2023-07-06T21:51:07.296Z,16.97
2023-07-06T21:53:33.968Z,16.93
2023-07-06T21:56:01.679Z,16.89
2023-07-06T21:58:28.934Z,16.87
2023-07-06T22:00:57.010Z,16.86
2023-07-06T22:03:24.276Z,16.82
2023-07-06T22:06:04.136Z,16.81
2023-07-06T22:08:30.871Z,16.82
2023-07-06T22:10:58.322Z,16.82
2023-07-06T22:13:26.102Z,16.68
2023-07-06T22:15:55.570Z,16.61
2023-07-06T22:18:24.021Z,16.55
2023-07-06T22:20:51.290Z,16.52
2023-07-06T22:23:19.182Z,16.50
2023-07-06T22:25:46.304Z,16.44
2023-07-06T22:28:14.542Z,16.36
2023-07-06T22:30:43.179Z,16.37
2023-07-06T22:33:10.476Z,16.31
2023-07-06T22:35:37.164Z,16.36
2023-07-06T22:38:03.784Z,16.39
2023-07-06T22:40:32.324Z,16.38
2023-07-06T22:43:02.342Z,16.36
2023-07-06T22:45:29.649Z,16.33
2023-07-06T22:47:57.665Z,16.33
2023-07-06T22:50:27.360Z,16.30
2023-07-06T22:52:59.867Z,16.24
2023-07-06T22:55:27.176Z,16.29
2023-07-06T22:57:53.999Z,16.32
2023-07-06T23:00:20.730Z,16.28
2023-07-06T23:02:47.405Z,16.23
2023-07-06T23:05:14.461Z,16.18
2023-07-06T23:07:41.559Z,16.18
2023-07-06T23:10:08.498Z,16.12
2023-07-06T23:12:40.313Z,16.09
2023-07-06T23:15:09.576Z,16.08
2023-07-06T23:17:36.103Z,16.08
2023-07-06T23:20:05.470Z,16.04
2023-07-06T23:22:34.362Z,16.04
2023-07-06T23:25:05.484Z,16.03
2023-07-06T23:27:33.137Z,16.04
2023-07-06T23:29:59.884Z,16.02
2023-07-06T23:32:31.302Z,16.03
2023-07-06T23:34:58.124Z,16.02
2023-07-06T23:37:27.200Z,16.00
2023-07-06T23:39:55.777Z,15.96
2023-07-06T23:42:24.371Z,15.98
2023-07-06T23:44:51.173Z,15.94
2023-07-06T23:47:17.754Z,15.90
2023-07-06T23:49:44.268Z,15.89
2023-07-06T23:52:10.903Z,15.90
2023-07-06T23:54:37.473Z,15.90
2023-07-06T23:57:04.328Z,15.94
2023-07-06T23:59:30.803Z,15.94
